sensor_id;sensor_type;location;lat;lon;timestamp;P1;durP1;ratioP1;P2;durP2;ratioP2
2362;SDS011;64265;51.664;7.626;2023-08-06T00:00:20;19.90;;;15.10;;
2362;SDS011;64265;51.664;7.626;2023-08-06T00:02:47;21.00;;;16.67;;
2362;SDS011;64265;51.664;7.626;2023-08-06T00:05:14;20.70;;;16.90;;
2362;SDS011;64265;51.664;7.626;2023-08-06T00:07:43;23.07;;;15.73;;
2362;SDS011;64265;51.664;7.626;2023-08-06T00:10:10;20.90;;;16.03;;
2362;SDS011;64265;51.664;7.626;2023-08-06T00:12:38;19.70;;;15.30;;
2362;SDS011;64265;51.664;7.626;2023-08-06T00:15:05;21.70;;;17.40;;
2362;SDS011;64265;51.664;7.626;2023-08-06T00:17:33;23.20;;;17.90;;
2362;SDS011;64265;51.664;7.626;2023-08-06T00:20:00;20.40;;;15.50;;
2362;SDS011;64265;51.664;7.626;2023-08-06T00:22:29;19.77;;;15.83;;
2362;SDS011;64265;51.664;7.626;2023-08-06T00:24:56;22.90;;;17.77;;
2362;SDS011;64265;51.664;7.626;2023-08-06T00:27:23;21.53;;;15.80;;
2362;SDS011;64265;51.664;7.626;2023-08-06T00:29:51;20.27;;;15.50;;
2362;SDS011;64265;51.664;7.626;2023-08-06T00:32:18;19.67;;;15.80;;
2362;SDS011;64265;51.664;7.626;2023-08-06T00:34:45;23.07;;;15.87;;
2362;SDS011;64265;51.664;7.626;2023-08-06T00:37:14;19.43;;;16.37;;
2362;SDS011;64265;51.664;7.626;2023-08-06T00:39:41;19.20;;;15.70;;
2362;SDS011;64265;51.664;7.626;2023-08-06T00:42:07;21.60;;;15.20;;
2362;SDS011;64265;51.664;7.626;2023-08-06T00:44:34;21.00;;;15.60;;
2362;SDS011;64265;51.664;7.626;2023-08-06T00:47:02;19.77;;;14.50;;
2362;SDS011;64265;51.664;7.626;2023-08-06T00:49:30;18.90;;;15.03;;
2362;SDS011;64265;51.664;7.626;2023-08-06T00:51:57;19.70;;;14.20;;
2362;SDS011;64265;51.664;7.626;2023-08-06T00:54:24;22.17;;;16.00;;
2362;SDS011;64265;51.664;7.626;2023-08-06T00:56:53;19.57;;;16.13;;
2362;SDS011;64265;51.664;7.626;2023-08-06T00:59:20;20.27;;;14.73;;
2362;SDS011;64265;51.664;7.626;2023-08-06T01:01:47;19.13;;;14.10;;
2362;SDS011;64265;51.664;7.626;2023-08-06T01:04:16;16.53;;;13.43;;
2362;SDS011;64265;51.664;7.626;2023-08-06T01:06:44;19.27;;;15.50;;
2362;SDS011;64265;51.664;7.626;2023-08-06T01:09:17;19.90;;;14.93;;
2362;SDS011;64265;51.664;7.626;2023-08-06T01:11:53;18.57;;;14.30;;
2362;SDS011;64265;51.664;7.626;2023-08-06T01:14:26;18.17;;;14.23;;
2362;SDS011;64265;51.664;7.626;2023-08-06T01:16:56;19.37;;;14.43;;
2362;SDS011;64265;51.664;7.626;2023-08-06T01:19:26;19.43;;;14.23;;
2362;SDS011;64265;51.664;7.626;2023-08-06T01:21:54;15.13;;;13.63;;
2362;SDS011;64265;51.664;7.626;2023-08-06T01:24:20;17.87;;;14.87;;
2362;SDS011;64265;51.664;7.626;2023-08-06T01:26:48;16.67;;;13.73;;
2362;SDS011;64265;51.664;7.626;2023-08-06T01:29:25;19.80;;;14.90;;
2362;SDS011;64265;51.664;7.626;2023-08-06T01:31:57;18.60;;;14.03;;
2362;SDS011;64265;51.664;7.626;2023-08-06T01:34:25;17.43;;;13.47;;
2362;SDS011;64265;51.664;7.626;2023-08-06T01:36:56;17.47;;;14.30;;
2362;SDS011;64265;51.664;7.626;2023-08-06T01:39:23;15.67;;;13.03;;
2362;SDS011;64265;51.664;7.626;2023-08-06T01:41:50;19.13;;;13.70;;
2362;SDS011;64265;51.664;7.626;2023-08-06T01:44:17;15.40;;;13.37;;
2362;SDS011;64265;51.664;7.626;2023-08-06T01:46:44;15.47;;;12.73;;
2362;SDS011;64265;51.664;7.626;2023-08-06T01:49:11;17.70;;;13.40;;
2362;SDS011;64265;51.664;7.626;2023-08-06T01:51:37;16.70;;;14.13;;
2362;SDS011;64265;51.664;7.626;2023-08-06T01:54:05;16.50;;;13.10;;
2362;SDS011;64265;51.664;7.626;2023-08-06T01:56:32;17.70;;;12.90;;
2362;SDS011;64265;51.664;7.626;2023-08-06T01:58:59;16.50;;;13.20;;
2362;SDS011;64265;51.664;7.626;2023-08-06T02:01:25;16.27;;;13.10;;
2362;SDS011;64265;51.664;7.626;2023-08-06T02:03:52;16.93;;;13.87;;
2362;SDS011;64265;51.664;7.626;2023-08-06T02:06:19;16.60;;;13.47;;
2362;SDS011;64265;51.664;7.626;2023-08-06T02:08:45;16.87;;;13.20;;
2362;SDS011;64265;51.664;7.626;2023-08-06T02:11:13;16.23;;;13.50;;
2362;SDS011;64265;51.664;7.626;2023-08-06T02:13:40;15.90;;;12.67;;
2362;SDS011;64265;51.664;7.626;2023-08-06T02:16:07;17.00;;;13.70;;
2362;SDS011;64265;51.664;7.626;2023-08-06T02:18:34;18.27;;;13.70;;
2362;SDS011;64265;51.664;7.626;2023-08-06T02:21:01;18.70;;;14.40;;
2362;SDS011;64265;51.664;7.626;2023-08-06T02:23:27;15.10;;;12.93;;
2362;SDS011;64265;51.664;7.626;2023-08-06T02:25:58;16.53;;;13.27;;
2362;SDS011;64265;51.664;7.626;2023-08-06T02:28:26;14.23;;;12.40;;
2362;SDS011;64265;51.664;7.626;2023-08-06T02:30:54;15.90;;;11.77;;
2362;SDS011;64265;51.664;7.626;2023-08-06T02:33:20;15.43;;;13.07;;
2362;SDS011;64265;51.664;7.626;2023-08-06T02:35:47;14.50;;;12.20;;
2362;SDS011;64265;51.664;7.626;2023-08-06T02:38:14;17.87;;;13.53;;
2362;SDS011;64265;51.664;7.626;2023-08-06T02:40:44;14.93;;;13.10;;
2362;SDS011;64265;51.664;7.626;2023-08-06T02:43:11;15.60;;;12.43;;
2362;SDS011;64265;51.664;7.626;2023-08-06T02:45:39;14.43;;;12.50;;
2362;SDS011;64265;51.664;7.626;2023-08-06T02:48:06;16.33;;;12.90;;
2362;SDS011;64265;51.664;7.626;2023-08-06T02:50:37;15.53;;;12.37;;
2362;SDS011;64265;51.664;7.626;2023-08-06T02:53:05;17.87;;;13.07;;
2362;SDS011;64265;51.664;7.626;2023-08-06T02:55:32;15.97;;;12.80;;
2362;SDS011;64265;51.664;7.626;2023-08-06T02:57:59;15.93;;;13.00;;
2362;SDS011;64265;51.664;7.626;2023-08-06T03:00:26;13.63;;;11.50;;
2362;SDS011;64265;51.664;7.626;2023-08-06T03:02:54;18.03;;;12.33;;
2362;SDS011;64265;51.664;7.626;2023-08-06T03:05:21;15.10;;;12.20;;
2362;SDS011;64265;51.664;7.626;2023-08-06T03:07:48;18.23;;;12.87;;
2362;SDS011;64265;51.664;7.626;2023-08-06T03:10:14;14.60;;;12.37;;
2362;SDS011;64265;51.664;7.626;2023-08-06T03:12:41;13.73;;;10.93;;
2362;SDS011;64265;51.664;7.626;2023-08-06T03:15:08;15.30;;;12.30;;
2362;SDS011;64265;51.664;7.626;2023-08-06T03:17:35;15.13;;;12.70;;
2362;SDS011;64265;51.664;7.626;2023-08-06T03:20:04;16.53;;;13.10;;
2362;SDS011;64265;51.664;7.626;2023-08-06T03:22:31;14.20;;;11.63;;
2362;SDS011;64265;51.664;7.626;2023-08-06T03:24:58;15.43;;;12.73;;
2362;SDS011;64265;51.664;7.626;2023-08-06T03:27:25;14.50;;;11.73;;
2362;SDS011;64265;51.664;7.626;2023-08-06T03:29:51;13.20;;;11.73;;
2362;SDS011;64265;51.664;7.626;2023-08-06T03:32:18;14.03;;;11.87;;
2362;SDS011;64265;51.664;7.626;2023-08-06T03:34:45;18.40;;;12.30;;
2362;SDS011;64265;51.664;7.626;2023-08-06T03:37:13;13.90;;;12.40;;
2362;SDS011;64265;51.664;7.626;2023-08-06T03:39:40;14.00;;;11.60;;
2362;SDS011;64265;51.664;7.626;2023-08-06T03:42:06;12.03;;;10.10;;
2362;SDS011;64265;51.664;7.626;2023-08-06T03:44:33;12.67;;;11.20;;
2362;SDS011;64265;51.664;7.626;2023-08-06T03:47:00;12.67;;;10.57;;
2362;SDS011;64265;51.664;7.626;2023-08-06T03:49:26;14.17;;;12.40;;
2362;SDS011;64265;51.664;7.626;2023-08-06T03:51:53;13.30;;;11.20;;
2362;SDS011;64265;51.664;7.626;2023-08-06T03:54:21;13.07;;;11.67;;
2362;SDS011;64265;51.664;7.626;2023-08-06T03:56:48;14.50;;;12.40;;
2362;SDS011;64265;51.664;7.626;2023-08-06T03:59:14;15.10;;;12.30;;
2362;SDS011;64265;51.664;7.626;2023-08-06T04:01:41;15.80;;;11.47;;
2362;SDS011;64265;51.664;7.626;2023-08-06T04:04:08;14.87;;;10.73;;
2362;SDS011;64265;51.664;7.626;2023-08-06T04:06:34;12.87;;;10.40;;
2362;SDS011;64265;51.664;7.626;2023-08-06T04:09:01;16.00;;;11.57;;
2362;SDS011;64265;51.664;7.626;2023-08-06T04:11:30;14.60;;;10.37;;
2362;SDS011;64265;51.664;7.626;2023-08-06T04:13:57;16.13;;;11.93;;
2362;SDS011;64265;51.664;7.626;2023-08-06T04:16:23;12.13;;;9.90;;
2362;SDS011;64265;51.664;7.626;2023-08-06T04:18:51;15.67;;;11.60;;
2362;SDS011;64265;51.664;7.626;2023-08-06T04:21:18;13.23;;;10.60;;
2362;SDS011;64265;51.664;7.626;2023-08-06T04:23:45;12.10;;;10.40;;
2362;SDS011;64265;51.664;7.626;2023-08-06T04:26:11;13.80;;;11.20;;
2362;SDS011;64265;51.664;7.626;2023-08-06T04:28:39;12.03;;;10.40;;
2362;SDS011;64265;51.664;7.626;2023-08-06T04:31:06;13.37;;;10.60;;
2362;SDS011;64265;51.664;7.626;2023-08-06T04:33:33;14.13;;;11.60;;
2362;SDS011;64265;51.664;7.626;2023-08-06T04:35:59;12.53;;;10.17;;
2362;SDS011;64265;51.664;7.626;2023-08-06T04:38:26;12.90;;;9.60;;
2362;SDS011;64265;51.664;7.626;2023-08-06T04:40:53;11.07;;;9.90;;
2362;SDS011;64265;51.664;7.626;2023-08-06T04:43:20;13.83;;;11.63;;
2362;SDS011;64265;51.664;7.626;2023-08-06T04:45:48;11.73;;;10.27;;
2362;SDS011;64265;51.664;7.626;2023-08-06T04:48:15;13.00;;;10.90;;
2362;SDS011;64265;51.664;7.626;2023-08-06T04:50:45;12.73;;;10.37;;
2362;SDS011;64265;51.664;7.626;2023-08-06T04:53:12;12.73;;;9.90;;
2362;SDS011;64265;51.664;7.626;2023-08-06T04:55:39;11.47;;;10.27;;
2362;SDS011;64265;51.664;7.626;2023-08-06T04:58:06;14.00;;;11.00;;
2362;SDS011;64265;51.664;7.626;2023-08-06T05:00:33;13.17;;;11.03;;
2362;SDS011;64265;51.664;7.626;2023-08-06T05:03:01;10.77;;;9.63;;
2362;SDS011;64265;51.664;7.626;2023-08-06T05:05:28;14.57;;;11.43;;
2362;SDS011;64265;51.664;7.626;2023-08-06T05:07:55;13.77;;;10.73;;
2362;SDS011;64265;51.664;7.626;2023-08-06T05:10:24;12.20;;;10.23;;
2362;SDS011;64265;51.664;7.626;2023-08-06T05:12:51;10.33;;;9.30;;
2362;SDS011;64265;51.664;7.626;2023-08-06T05:15:17;13.17;;;10.80;;
2362;SDS011;64265;51.664;7.626;2023-08-06T05:17:44;10.60;;;9.50;;
2362;SDS011;64265;51.664;7.626;2023-08-06T05:20:12;12.00;;;9.60;;
2362;SDS011;64265;51.664;7.626;2023-08-06T05:22:39;10.77;;;9.67;;
2362;SDS011;64265;51.664;7.626;2023-08-06T05:25:06;13.03;;;10.60;;
2362;SDS011;64265;51.664;7.626;2023-08-06T05:27:33;10.67;;;9.63;;
2362;SDS011;64265;51.664;7.626;2023-08-06T05:30:00;10.90;;;9.70;;
2362;SDS011;64265;51.664;7.626;2023-08-06T05:32:27;12.27;;;10.73;;
2362;SDS011;64265;51.664;7.626;2023-08-06T05:34:53;12.30;;;10.60;;
2362;SDS011;64265;51.664;7.626;2023-08-06T05:37:21;11.53;;;9.60;;
2362;SDS011;64265;51.664;7.626;2023-08-06T05:39:48;12.00;;;10.00;;
2362;SDS011;64265;51.664;7.626;2023-08-06T05:42:15;13.30;;;9.97;;
2362;SDS011;64265;51.664;7.626;2023-08-06T05:44:42;10.30;;;9.20;;
2362;SDS011;64265;51.664;7.626;2023-08-06T05:47:09;10.90;;;9.80;;
2362;SDS011;64265;51.664;7.626;2023-08-06T05:49:35;11.70;;;8.90;;
2362;SDS011;64265;51.664;7.626;2023-08-06T05:52:03;9.07;;;8.17;;
2362;SDS011;64265;51.664;7.626;2023-08-06T05:54:32;10.67;;;8.23;;
2362;SDS011;64265;51.664;7.626;2023-08-06T05:56:59;9.77;;;8.70;;
2362;SDS011;64265;51.664;7.626;2023-08-06T05:59:25;11.50;;;9.93;;
2362;SDS011;64265;51.664;7.626;2023-08-06T06:01:52;11.00;;;9.10;;
2362;SDS011;64265;51.664;7.626;2023-08-06T06:04:19;10.30;;;8.83;;
2362;SDS011;64265;51.664;7.626;2023-08-06T06:06:46;9.70;;;8.70;;
2362;SDS011;64265;51.664;7.626;2023-08-06T06:09:13;10.50;;;8.73;;
2362;SDS011;64265;51.664;7.626;2023-08-06T06:11:41;9.43;;;8.00;;
2362;SDS011;64265;51.664;7.626;2023-08-06T06:14:07;10.57;;;8.17;;
2362;SDS011;64265;51.664;7.626;2023-08-06T06:16:34;9.77;;;8.47;;
2362;SDS011;64265;51.664;7.626;2023-08-06T06:19:01;9.70;;;8.30;;
2362;SDS011;64265;51.664;7.626;2023-08-06T06:21:27;10.07;;;8.63;;
2362;SDS011;64265;51.664;7.626;2023-08-06T06:23:54;10.00;;;8.80;;
2362;SDS011;64265;51.664;7.626;2023-08-06T06:26:21;10.10;;;8.90;;
2362;SDS011;64265;51.664;7.626;2023-08-06T06:28:49;10.63;;;9.43;;
2362;SDS011;64265;51.664;7.626;2023-08-06T06:31:16;9.30;;;8.30;;
2362;SDS011;64265;51.664;7.626;2023-08-06T06:33:43;10.53;;;9.23;;
2362;SDS011;64265;51.664;7.626;2023-08-06T06:36:09;8.90;;;7.90;;
2362;SDS011;64265;51.664;7.626;2023-08-06T06:38:36;9.97;;;8.97;;
2362;SDS011;64265;51.664;7.626;2023-08-06T06:41:03;9.03;;;8.20;;
2362;SDS011;64265;51.664;7.626;2023-08-06T06:43:30;8.83;;;7.93;;
2362;SDS011;64265;51.664;7.626;2023-08-06T06:45:58;9.67;;;8.67;;
2362;SDS011;64265;51.664;7.626;2023-08-06T06:48:26;10.87;;;8.53;;
2362;SDS011;64265;51.664;7.626;2023-08-06T06:50:53;9.00;;;8.07;;
2362;SDS011;64265;51.664;7.626;2023-08-06T06:53:20;8.60;;;7.63;;
2362;SDS011;64265;51.664;7.626;2023-08-06T06:55:52;9.60;;;8.70;;
2362;SDS011;64265;51.664;7.626;2023-08-06T06:58:18;9.03;;;8.00;;
2362;SDS011;64265;51.664;7.626;2023-08-06T07:00:45;10.27;;;9.27;;
2362;SDS011;64265;51.664;7.626;2023-08-06T07:03:13;9.43;;;8.20;;
2362;SDS011;64265;51.664;7.626;2023-08-06T07:05:40;10.10;;;8.60;;
2362;SDS011;64265;51.664;7.626;2023-08-06T07:08:07;11.73;;;9.50;;
2362;SDS011;64265;51.664;7.626;2023-08-06T07:10:34;10.53;;;8.53;;
2362;SDS011;64265;51.664;7.626;2023-08-06T07:13:01;10.90;;;8.60;;
2362;SDS011;64265;51.664;7.626;2023-08-06T07:15:27;10.40;;;8.30;;
2362;SDS011;64265;51.664;7.626;2023-08-06T07:17:54;10.20;;;8.00;;
2362;SDS011;64265;51.664;7.626;2023-08-06T07:20:22;11.63;;;8.30;;
2362;SDS011;64265;51.664;7.626;2023-08-06T07:22:49;9.50;;;8.60;;
2362;SDS011;64265;51.664;7.626;2023-08-06T07:25:16;11.80;;;8.27;;
2362;SDS011;64265;51.664;7.626;2023-08-06T07:27:44;7.80;;;7.10;;
2362;SDS011;64265;51.664;7.626;2023-08-06T07:30:11;7.17;;;6.47;;
2362;SDS011;64265;51.664;7.626;2023-08-06T07:32:37;9.20;;;6.80;;
2362;SDS011;64265;51.664;7.626;2023-08-06T07:35:04;5.70;;;5.17;;
2362;SDS011;64265;51.664;7.626;2023-08-06T07:37:34;11.23;;;6.43;;
2362;SDS011;64265;51.664;7.626;2023-08-06T07:40:01;5.27;;;4.30;;
2362;SDS011;64265;51.664;7.626;2023-08-06T07:42:28;5.33;;;4.37;;
2362;SDS011;64265;51.664;7.626;2023-08-06T07:44:55;4.87;;;4.30;;
2362;SDS011;64265;51.664;7.626;2023-08-06T07:47:24;4.33;;;3.93;;
2362;SDS011;64265;51.664;7.626;2023-08-06T07:49:51;5.20;;;3.77;;
2362;SDS011;64265;51.664;7.626;2023-08-06T07:52:17;3.90;;;2.87;;
2362;SDS011;64265;51.664;7.626;2023-08-06T07:54:45;6.03;;;3.67;;
2362;SDS011;64265;51.664;7.626;2023-08-06T07:57:12;3.90;;;3.43;;
2362;SDS011;64265;51.664;7.626;2023-08-06T07:59:40;5.70;;;4.40;;
2362;SDS011;64265;51.664;7.626;2023-08-06T08:02:06;5.03;;;4.10;;
2362;SDS011;64265;51.664;7.626;2023-08-06T08:04:33;5.47;;;3.30;;
2362;SDS011;64265;51.664;7.626;2023-08-06T08:07:00;3.80;;;3.40;;
2362;SDS011;64265;51.664;7.626;2023-08-06T08:09:27;4.33;;;3.20;;
2362;SDS011;64265;51.664;7.626;2023-08-06T08:11:55;3.70;;;3.20;;
2362;SDS011;64265;51.664;7.626;2023-08-06T08:14:22;4.60;;;3.70;;
2362;SDS011;64265;51.664;7.626;2023-08-06T08:16:49;3.17;;;2.90;;
2362;SDS011;64265;51.664;7.626;2023-08-06T08:19:16;3.43;;;3.10;;
2362;SDS011;64265;51.664;7.626;2023-08-06T08:21:43;3.30;;;2.80;;
2362;SDS011;64265;51.664;7.626;2023-08-06T08:24:09;5.23;;;3.00;;
2362;SDS011;64265;51.664;7.626;2023-08-06T08:26:36;6.37;;;3.47;;
2362;SDS011;64265;51.664;7.626;2023-08-06T08:29:04;6.50;;;3.57;;
2362;SDS011;64265;51.664;7.626;2023-08-06T08:31:31;4.87;;;4.00;;
2362;SDS011;64265;51.664;7.626;2023-08-06T08:34:04;5.07;;;3.13;;
2362;SDS011;64265;51.664;7.626;2023-08-06T08:36:30;7.20;;;4.00;;
2362;SDS011;64265;51.664;7.626;2023-08-06T08:38:57;3.77;;;3.40;;
2362;SDS011;64265;51.664;7.626;2023-08-06T08:41:24;4.10;;;3.17;;
2362;SDS011;64265;51.664;7.626;2023-08-06T08:43:51;3.97;;;2.93;;
2362;SDS011;64265;51.664;7.626;2023-08-06T08:46:20;7.03;;;2.70;;
2362;SDS011;64265;51.664;7.626;2023-08-06T08:48:46;3.53;;;3.23;;
2362;SDS011;64265;51.664;7.626;2023-08-06T08:51:15;3.50;;;2.90;;
2362;SDS011;64265;51.664;7.626;2023-08-06T08:53:43;3.70;;;3.33;;
2362;SDS011;64265;51.664;7.626;2023-08-06T08:56:12;4.57;;;3.30;;
2362;SDS011;64265;51.664;7.626;2023-08-06T08:58:39;3.20;;;3.00;;
2362;SDS011;64265;51.664;7.626;2023-08-06T09:01:06;3.80;;;3.13;;
2362;SDS011;64265;51.664;7.626;2023-08-06T09:03:36;5.40;;;3.00;;
2362;SDS011;64265;51.664;7.626;2023-08-06T09:06:03;5.20;;;3.10;;
2362;SDS011;64265;51.664;7.626;2023-08-06T09:08:33;2.77;;;2.33;;
2362;SDS011;64265;51.664;7.626;2023-08-06T09:11:03;4.10;;;2.37;;
2362;SDS011;64265;51.664;7.626;2023-08-06T09:13:34;4.20;;;2.80;;
2362;SDS011;64265;51.664;7.626;2023-08-06T09:16:03;3.50;;;2.70;;
2362;SDS011;64265;51.664;7.626;2023-08-06T09:18:30;4.27;;;2.90;;
2362;SDS011;64265;51.664;7.626;2023-08-06T09:20:58;3.10;;;2.43;;
2362;SDS011;64265;51.664;7.626;2023-08-06T09:23:28;3.97;;;2.57;;
2362;SDS011;64265;51.664;7.626;2023-08-06T09:25:56;4.90;;;2.53;;
2362;SDS011;64265;51.664;7.626;2023-08-06T09:28:23;3.93;;;3.03;;
2362;SDS011;64265;51.664;7.626;2023-08-06T09:30:50;3.70;;;2.70;;
2362;SDS011;64265;51.664;7.626;2023-08-06T09:33:20;4.93;;;2.70;;
2362;SDS011;64265;51.664;7.626;2023-08-06T09:35:48;3.10;;;2.80;;
2362;SDS011;64265;51.664;7.626;2023-08-06T09:38:16;6.57;;;3.63;;
2362;SDS011;64265;51.664;7.626;2023-08-06T09:40:43;5.70;;;3.10;;
2362;SDS011;64265;51.664;7.626;2023-08-06T09:43:10;3.37;;;2.70;;
2362;SDS011;64265;51.664;7.626;2023-08-06T09:45:38;6.10;;;2.90;;
2362;SDS011;64265;51.664;7.626;2023-08-06T09:48:06;4.40;;;2.57;;
2362;SDS011;64265;51.664;7.626;2023-08-06T09:50:34;11.37;;;3.20;;
2362;SDS011;64265;51.664;7.626;2023-08-06T09:53:03;2.43;;;2.23;;
2362;SDS011;64265;51.664;7.626;2023-08-06T09:55:32;4.47;;;3.00;;
2362;SDS011;64265;51.664;7.626;2023-08-06T09:57:59;4.00;;;2.90;;
2362;SDS011;64265;51.664;7.626;2023-08-06T10:00:27;3.80;;;2.70;;
2362;SDS011;64265;51.664;7.626;2023-08-06T10:02:54;2.80;;;2.60;;
2362;SDS011;64265;51.664;7.626;2023-08-06T10:05:25;4.63;;;2.50;;
2362;SDS011;64265;51.664;7.626;2023-08-06T10:07:53;5.33;;;2.20;;
2362;SDS011;64265;51.664;7.626;2023-08-06T10:10:21;4.40;;;3.13;;
2362;SDS011;64265;51.664;7.626;2023-08-06T10:12:51;7.03;;;3.10;;
2362;SDS011;64265;51.664;7.626;2023-08-06T10:15:22;2.93;;;2.67;;
2362;SDS011;64265;51.664;7.626;2023-08-06T10:17:51;3.53;;;2.13;;
2362;SDS011;64265;51.664;7.626;2023-08-06T10:20:22;7.07;;;2.63;;
2362;SDS011;64265;51.664;7.626;2023-08-06T10:22:59;4.10;;;2.80;;
2362;SDS011;64265;51.664;7.626;2023-08-06T10:25:28;3.37;;;2.63;;
2362;SDS011;64265;51.664;7.626;2023-08-06T10:27:58;3.93;;;2.73;;
2362;SDS011;64265;51.664;7.626;2023-08-06T10:30:25;3.13;;;2.83;;
2362;SDS011;64265;51.664;7.626;2023-08-06T10:32:54;3.90;;;2.67;;
2362;SDS011;64265;51.664;7.626;2023-08-06T10:35:29;3.00;;;2.70;;
2362;SDS011;64265;51.664;7.626;2023-08-06T10:37:59;2.90;;;2.70;;
2362;SDS011;64265;51.664;7.626;2023-08-06T10:40:29;5.17;;;2.87;;
2362;SDS011;64265;51.664;7.626;2023-08-06T10:42:59;6.10;;;2.60;;
2362;SDS011;64265;51.664;7.626;2023-08-06T10:45:26;4.63;;;2.47;;
2362;SDS011;64265;51.664;7.626;2023-08-06T10:47:55;2.70;;;2.50;;
2362;SDS011;64265;51.664;7.626;2023-08-06T10:50:23;2.40;;;2.23;;
2362;SDS011;64265;51.664;7.626;2023-08-06T10:52:50;3.70;;;2.30;;
2362;SDS011;64265;51.664;7.626;2023-08-06T10:55:24;10.30;;;3.10;;
2362;SDS011;64265;51.664;7.626;2023-08-06T10:57:51;3.90;;;2.67;;
2362;SDS011;64265;51.664;7.626;2023-08-06T11:00:20;2.47;;;2.27;;
2362;SDS011;64265;51.664;7.626;2023-08-06T11:02:48;2.40;;;2.00;;
2362;SDS011;64265;51.664;7.626;2023-08-06T11:05:15;3.70;;;2.63;;
2362;SDS011;64265;51.664;7.626;2023-08-06T11:07:42;3.10;;;2.80;;
2362;SDS011;64265;51.664;7.626;2023-08-06T11:10:09;3.30;;;2.40;;
2362;SDS011;64265;51.664;7.626;2023-08-06T11:12:37;2.90;;;2.70;;
2362;SDS011;64265;51.664;7.626;2023-08-06T11:15:05;2.27;;;1.83;;
2362;SDS011;64265;51.664;7.626;2023-08-06T11:17:34;2.90;;;2.30;;
2362;SDS011;64265;51.664;7.626;2023-08-06T11:20:02;2.33;;;2.13;;
2362;SDS011;64265;51.664;7.626;2023-08-06T11:22:30;2.67;;;2.40;;
2362;SDS011;64265;51.664;7.626;2023-08-06T11:24:56;3.03;;;2.73;;
2362;SDS011;64265;51.664;7.626;2023-08-06T11:27:26;5.50;;;2.50;;
2362;SDS011;64265;51.664;7.626;2023-08-06T11:29:53;2.53;;;2.33;;
2362;SDS011;64265;51.664;7.626;2023-08-06T11:32:20;3.50;;;2.60;;
2362;SDS011;64265;51.664;7.626;2023-08-06T11:34:48;3.77;;;2.40;;
2362;SDS011;64265;51.664;7.626;2023-08-06T11:37:15;4.30;;;2.90;;
2362;SDS011;64265;51.664;7.626;2023-08-06T11:39:44;2.67;;;2.03;;
2362;SDS011;64265;51.664;7.626;2023-08-06T11:42:13;2.27;;;2.07;;
2362;SDS011;64265;51.664;7.626;2023-08-06T11:44:40;2.40;;;2.20;;
2362;SDS011;64265;51.664;7.626;2023-08-06T11:47:11;6.70;;;2.47;;
2362;SDS011;64265;51.664;7.626;2023-08-06T11:49:39;3.40;;;2.30;;
2362;SDS011;64265;51.664;7.626;2023-08-06T11:52:19;2.00;;;1.90;;
2362;SDS011;64265;51.664;7.626;2023-08-06T11:54:59;2.73;;;1.77;;
2362;SDS011;64265;51.664;7.626;2023-08-06T11:57:28;2.97;;;2.07;;
2362;SDS011;64265;51.664;7.626;2023-08-06T11:59:58;3.10;;;2.73;;
2362;SDS011;64265;51.664;7.626;2023-08-06T12:02:27;2.90;;;2.60;;
2362;SDS011;64265;51.664;7.626;2023-08-06T12:04:59;3.40;;;2.73;;
2362;SDS011;64265;51.664;7.626;2023-08-06T12:07:28;2.77;;;2.53;;
2362;SDS011;64265;51.664;7.626;2023-08-06T12:09:55;2.70;;;2.27;;
2362;SDS011;64265;51.664;7.626;2023-08-06T12:12:22;5.30;;;2.47;;
2362;SDS011;64265;51.664;7.626;2023-08-06T12:14:50;3.20;;;2.50;;
2362;SDS011;64265;51.664;7.626;2023-08-06T12:17:16;2.60;;;2.30;;
2362;SDS011;64265;51.664;7.626;2023-08-06T12:19:44;3.83;;;2.70;;
2362;SDS011;64265;51.664;7.626;2023-08-06T12:22:12;3.70;;;2.63;;
2362;SDS011;64265;51.664;7.626;2023-08-06T12:24:40;2.47;;;2.10;;
2362;SDS011;64265;51.664;7.626;2023-08-06T12:27:07;4.03;;;2.57;;
2362;SDS011;64265;51.664;7.626;2023-08-06T12:29:34;2.30;;;2.10;;
2362;SDS011;64265;51.664;7.626;2023-08-06T12:32:01;2.93;;;1.80;;
2362;SDS011;64265;51.664;7.626;2023-08-06T12:34:29;2.50;;;2.17;;
2362;SDS011;64265;51.664;7.626;2023-08-06T12:36:56;3.00;;;2.70;;
2362;SDS011;64265;51.664;7.626;2023-08-06T12:39:22;4.20;;;2.63;;
2362;SDS011;64265;51.664;7.626;2023-08-06T12:41:51;2.60;;;2.40;;
2362;SDS011;64265;51.664;7.626;2023-08-06T12:44:17;3.20;;;2.70;;
2362;SDS011;64265;51.664;7.626;2023-08-06T12:46:44;2.60;;;2.40;;
2362;SDS011;64265;51.664;7.626;2023-08-06T12:49:11;2.77;;;2.40;;
2362;SDS011;64265;51.664;7.626;2023-08-06T12:51:37;3.33;;;2.57;;
2362;SDS011;64265;51.664;7.626;2023-08-06T12:54:04;2.43;;;2.23;;
2362;SDS011;64265;51.664;7.626;2023-08-06T12:56:31;2.20;;;2.00;;
2362;SDS011;64265;51.664;7.626;2023-08-06T12:58:59;2.40;;;2.20;;
2362;SDS011;64265;51.664;7.626;2023-08-06T13:01:25;1.90;;;1.80;;
2362;SDS011;64265;51.664;7.626;2023-08-06T13:03:52;2.47;;;2.00;;
2362;SDS011;64265;51.664;7.626;2023-08-06T13:06:19;2.57;;;2.27;;
2362;SDS011;64265;51.664;7.626;2023-08-06T13:08:45;2.37;;;2.10;;
2362;SDS011;64265;51.664;7.626;2023-08-06T13:11:12;2.60;;;2.40;;
2362;SDS011;64265;51.664;7.626;2023-08-06T13:13:39;2.40;;;2.20;;
2362;SDS011;64265;51.664;7.626;2023-08-06T13:16:07;2.50;;;2.30;;
2362;SDS011;64265;51.664;7.626;2023-08-06T13:18:34;2.00;;;1.83;;
2362;SDS011;64265;51.664;7.626;2023-08-06T13:21:00;3.57;;;2.50;;
2362;SDS011;64265;51.664;7.626;2023-08-06T13:23:27;2.70;;;2.43;;
2362;SDS011;64265;51.664;7.626;2023-08-06T13:25:54;2.83;;;2.53;;
2362;SDS011;64265;51.664;7.626;2023-08-06T13:28:20;3.40;;;2.50;;
2362;SDS011;64265;51.664;7.626;2023-08-06T13:30:47;6.23;;;2.10;;
2362;SDS011;64265;51.664;7.626;2023-08-06T13:33:15;2.50;;;2.30;;
2362;SDS011;64265;51.664;7.626;2023-08-06T13:35:42;2.67;;;2.47;;
2362;SDS011;64265;51.664;7.626;2023-08-06T13:38:09;2.40;;;2.20;;
2362;SDS011;64265;51.664;7.626;2023-08-06T13:40:35;2.20;;;2.00;;
2362;SDS011;64265;51.664;7.626;2023-08-06T13:43:02;2.43;;;2.23;;
2362;SDS011;64265;51.664;7.626;2023-08-06T13:45:29;3.33;;;1.90;;
2362;SDS011;64265;51.664;7.626;2023-08-06T13:47:56;3.60;;;2.50;;
2362;SDS011;64265;51.664;7.626;2023-08-06T13:50:24;3.83;;;2.20;;
2362;SDS011;64265;51.664;7.626;2023-08-06T13:52:52;4.10;;;2.30;;
2362;SDS011;64265;51.664;7.626;2023-08-06T13:55:20;5.03;;;2.27;;
2362;SDS011;64265;51.664;7.626;2023-08-06T13:57:47;2.20;;;2.00;;
2362;SDS011;64265;51.664;7.626;2023-08-06T14:00:14;2.27;;;2.17;;
2362;SDS011;64265;51.664;7.626;2023-08-06T14:02:41;4.37;;;2.23;;
2362;SDS011;64265;51.664;7.626;2023-08-06T14:05:09;2.27;;;2.00;;
2362;SDS011;64265;51.664;7.626;2023-08-06T14:07:37;2.00;;;1.80;;
2362;SDS011;64265;51.664;7.626;2023-08-06T14:10:04;2.90;;;1.80;;
2362;SDS011;64265;51.664;7.626;2023-08-06T14:12:31;2.20;;;2.00;;
2362;SDS011;64265;51.664;7.626;2023-08-06T14:14:58;2.10;;;1.90;;
2362;SDS011;64265;51.664;7.626;2023-08-06T14:17:25;2.07;;;1.80;;
2362;SDS011;64265;51.664;7.626;2023-08-06T14:19:52;3.43;;;2.00;;
2362;SDS011;64265;51.664;7.626;2023-08-06T14:22:19;1.67;;;1.40;;
2362;SDS011;64265;51.664;7.626;2023-08-06T14:24:47;2.87;;;1.70;;
2362;SDS011;64265;51.664;7.626;2023-08-06T14:27:13;3.43;;;1.67;;
2362;SDS011;64265;51.664;7.626;2023-08-06T14:29:40;2.90;;;1.37;;
2362;SDS011;64265;51.664;7.626;2023-08-06T14:32:07;2.77;;;1.53;;
2362;SDS011;64265;51.664;7.626;2023-08-06T14:34:34;2.03;;;1.87;;
2362;SDS011;64265;51.664;7.626;2023-08-06T14:37:00;1.70;;;1.30;;
2362;SDS011;64265;51.664;7.626;2023-08-06T14:39:27;1.50;;;1.40;;
2362;SDS011;64265;51.664;7.626;2023-08-06T14:41:55;2.03;;;1.40;;
2362;SDS011;64265;51.664;7.626;2023-08-06T14:44:22;2.47;;;1.50;;
2362;SDS011;64265;51.664;7.626;2023-08-06T14:46:48;2.17;;;1.57;;
2362;SDS011;64265;51.664;7.626;2023-08-06T14:49:15;1.50;;;1.20;;
2362;SDS011;64265;51.664;7.626;2023-08-06T14:51:42;1.40;;;1.30;;